Time;durP1;ratioP1;P1;durP2;ratioP2;P2;SDS_P1;SDS_P2;PMS_P1;PMS_P2;Temp;Humidity;BMP_temperature;BMP_pressure;BME280_temperature;BME280_humidity;BME280_pressure;Samples;Min_cycle;Max_cycle;Signal;HPM_P1;HPM_P2
2021/05/16 00:00:38;;;;;;;13.50;7.78;;;;;;;13.28;65.60;98950.19;1714046;82;21080;-40
2021/05/16 00:03:05;;;;;;;10.53;8.88;;;;;;;13.22;65.46;98944.34;1721515;82;21039;-40
2021/05/16 00:05:32;;;;;;;11.80;8.25;;;;;;;13.19;65.66;98945.12;1717386;82;21091;-39
2021/05/16 00:08:00;;;;;;;9.58;7.87;;;;;;;13.20;65.89;98941.24;1713637;81;21090;-39
2021/05/16 00:10:27;;;;;;;10.98;8.98;;;;;;;13.27;65.82;98943.17;1718637;82;21916;-39
2021/05/16 00:12:57;;;;;;;9.60;8.50;;;;;;;13.28;65.60;98942.80;1724379;82;21068;-40
2021/05/16 00:15:24;;;;;;;10.95;8.35;;;;;;;13.28;65.64;98937.94;1722995;82;21725;-40
2021/05/16 00:17:51;;;;;;;9.55;8.55;;;;;;;13.27;65.80;98941.23;1714087;82;21150;-40
2021/05/16 00:20:21;;;;;;;10.15;8.85;;;;;;;13.27;66.09;98937.16;1733180;82;21152;-40
2021/05/16 00:22:47;;;;;;;12.40;9.10;;;;;;;13.28;66.36;98940.08;1731077;82;21574;-40
2021/05/16 00:25:16;;;;;;;9.60;8.55;;;;;;;13.27;66.38;98941.23;1725967;82;21114;-39
2021/05/16 00:27:43;;;;;;;6.87;6.22;;;;;;;13.21;66.25;98946.89;1715897;82;21633;-40
2021/05/16 00:30:14;;;;;;;10.98;9.55;;;;;;;13.19;66.31;98953.87;1718010;82;21111;-40
2021/05/16 00:32:42;;;;;;;12.65;10.23;;;;;;;13.11;66.58;98964.52;1717753;82;21090;-40
2021/05/16 00:35:11;;;;;;;14.00;10.93;;;;;;;12.98;67.07;98964.87;1717636;82;21625;-40
2021/05/16 00:37:37;;;;;;;12.53;10.28;;;;;;;12.87;67.13;98972.81;1718579;82;21545;-39
2021/05/16 00:40:06;;;;;;;13.35;11.35;;;;;;;12.74;69.07;98980.52;1716043;82;21068;-40
2021/05/16 00:42:33;;;;;;;14.53;10.78;;;;;;;12.34;69.35;98931.23;1717811;82;20992;-39
2021/05/16 00:45:09;;;;;;;12.47;10.60;;;;;;;12.67;69.53;98981.88;1719517;82;21091;-40
2021/05/16 00:47:38;;;;;;;11.55;10.38;;;;;;;12.73;69.48;98974.88;1719012;81;21074;-39
2021/05/16 00:50:08;;;;;;;11.53;10.40;;;;;;;12.81;69.26;98976.48;1653611;84;21103;-39
2021/05/16 00:52:34;;;;;;;12.95;11.30;;;;;;;12.91;69.13;98970.88;1715866;82;21088;-40
2021/05/16 00:55:01;;;;;;;12.85;11.00;;;;;;;12.99;68.93;98965.07;1720669;81;21040;-39
2021/05/16 00:57:28;;;;;;;11.68;10.48;;;;;;;13.05;68.56;98970.34;1720415;82;21711;-40
2021/05/16 00:59:55;;;;;;;12.28;10.98;;;;;;;13.08;68.10;98970.14;1715545;82;21067;-39
2021/05/16 01:02:21;;;;;;;13.72;11.55;;;;;;;13.08;67.74;98962.76;1683835;83;21660;-39
2021/05/16 01:04:50;;;;;;;11.20;10.08;;;;;;;13.07;67.36;98960.41;1675336;84;21010;-39
2021/05/16 01:07:18;;;;;;;11.30;9.93;;;;;;;13.05;67.18;98962.17;1706515;82;21157;-40
2021/05/16 01:09:45;;;;;;;10.60;9.58;;;;;;;13.09;66.82;98955.38;1728690;82;21097;-40
2021/05/16 01:12:13;;;;;;;12.10;10.60;;;;;;;13.11;66.43;98955.00;1727637;82;21075;-40
2021/05/16 01:14:46;;;;;;;11.45;10.35;;;;;;;13.09;66.24;98959.45;1730649;82;21539;-39
2021/05/16 01:17:08;;;;;;;10.60;9.60;;;;;;;13.06;66.34;98954.22;1710524;82;21071;-40
2021/05/16 01:19:37;;;;;;;11.18;10.00;;;;;;;13.06;66.35;98952.08;1727942;82;21569;-39
2021/05/16 01:22:06;;;;;;;12.88;10.63;;;;;;;13.04;66.08;98959.83;1730780;82;21047;-39
2021/05/16 01:24:37;;;;;;;11.75;10.55;;;;;;;13.00;66.01;98968.58;1730193;82;21492;-40
2021/05/16 01:27:09;;;;;;;12.30;11.10;;;;;;;12.96;65.94;98969.94;1726721;82;21050;-40
2021/05/16 01:29:38;;;;;;;11.60;9.38;;;;;;;12.93;65.72;98973.98;1711058;82;21086;-39
2021/05/16 01:32:10;;;;;;;10.75;9.65;;;;;;;12.92;65.41;98968.36;1730481;82;21118;-39
2021/05/16 01:34:33;;;;;;;10.80;9.70;;;;;;;12.92;65.18;98972.45;1725619;82;21091;-39
2021/05/16 01:37:00;;;;;;;12.58;11.15;;;;;;;12.88;65.05;98977.08;1732386;82;21006;-40
2021/05/16 01:39:27;;;;;;;14.75;10.63;;;;;;;12.84;65.18;98976.28;1730484;82;21078;-40
2021/05/16 01:41:54;;;;;;;12.23;10.65;;;;;;;12.84;65.32;98983.09;1730717;82;20999;-40
2021/05/16 01:44:23;;;;;;;12.25;10.82;;;;;;;12.82;65.38;98984.85;1737547;82;21062;-39
2021/05/16 01:46:52;;;;;;;13.22;10.85;;;;;;;12.77;65.62;98981.14;1734967;82;21067;-39
2021/05/16 01:49:18;;;;;;;11.75;10.35;;;;;;;12.74;65.84;98983.82;1725693;82;21572;-40
2021/05/16 01:51:45;;;;;;;13.40;10.25;;;;;;;12.42;65.94;98935.53;1731174;82;21106;-40
2021/05/16 01:54:13;;;;;;;11.93;10.38;;;;;;;12.72;65.59;98983.44;1735292;82;21029;-40
2021/05/16 01:56:39;;;;;;;13.25;11.85;;;;;;;12.74;65.25;98981.88;1729453;80;21101;-39
2021/05/16 01:59:06;;;;;;;12.63;10.48;;;;;;;12.74;65.01;98984.61;1736645;82;21806;-39
2021/05/16 02:01:33;;;;;;;14.78;11.20;;;;;;;12.69;64.85;98982.83;1730275;82;21635;-39
2021/05/16 02:04:02;;;;;;;12.90;11.05;;;;;;;12.68;64.87;98982.66;1718350;82;21102;-39
2021/05/16 02:06:29;;;;;;;12.55;10.88;;;;;;;12.66;65.02;98979.52;1727406;82;21015;-40
2021/05/16 02:08:57;;;;;;;11.75;10.55;;;;;;;12.63;65.02;98980.47;1712712;82;21644;-40
2021/05/16 02:11:30;;;;;;;14.03;11.48;;;;;;;12.60;64.94;98989.98;1704989;82;21019;-40
2021/05/16 02:13:59;;;;;;;14.78;11.88;;;;;;;12.52;64.98;98993.84;1705899;82;21051;-40
2021/05/16 02:16:26;;;;;;;14.33;11.18;;;;;;;12.46;65.32;99001.58;1710083;82;20968;-40
2021/05/16 02:18:54;;;;;;;12.60;10.88;;;;;;;12.47;65.55;98996.34;1726991;82;21000;-40
2021/05/16 02:21:23;;;;;;;12.50;11.20;;;;;;;12.52;65.37;99005.50;1707305;82;21079;-40
2021/05/16 02:23:51;;;;;;;12.03;10.80;;;;;;;12.52;65.80;99006.86;1708735;82;21077;-40
2021/05/16 02:26:20;;;;;;;14.55;11.60;;;;;;;12.51;65.56;99010.73;1703768;82;21031;-40
2021/05/16 02:28:47;;;;;;;13.43;11.43;;;;;;;12.51;65.39;99009.38;1716987;82;20996;-40
2021/05/16 02:31:16;;;;;;;12.93;11.63;;;;;;;12.50;65.26;99007.80;1718230;82;20956;-40
2021/05/16 02:33:43;;;;;;;13.78;12.00;;;;;;;12.48;65.18;99003.92;1705287;82;20956;-40
2021/05/16 02:36:12;;;;;;;14.07;12.60;;;;;;;12.42;65.04;99006.22;1704999;82;21840;-40
2021/05/16 02:38:39;;;;;;;14.10;12.50;;;;;;;12.38;65.04;99017.66;1705257;82;20987;-40
2021/05/16 02:41:05;;;;;;;13.20;11.85;;;;;;;12.34;65.34;99010.06;1705144;82;21020;-40
2021/05/16 02:43:32;;;;;;;15.10;11.55;;;;;;;12.30;65.51;99013.89;1705014;82;21031;-40
2021/05/16 02:45:59;;;;;;;13.48;12.03;;;;;;;12.30;65.74;99014.67;1713604;82;21677;-40
2021/05/16 02:48:26;;;;;;;15.05;13.55;;;;;;;12.33;65.80;99013.15;1710074;82;21837;-40
2021/05/16 02:50:53;;;;;;;14.78;13.08;;;;;;;12.35;66.18;99014.31;1716932;82;20987;-40
2021/05/16 02:53:22;;;;;;;15.20;13.32;;;;;;;12.37;67.00;99016.09;1704473;82;22233;-40
2021/05/16 02:55:51;;;;;;;15.50;13.58;;;;;;;12.40;66.92;99022.11;1704788;82;21620;-40
2021/05/16 02:58:18;;;;;;;14.58;13.08;;;;;;;12.41;66.82;99017.46;1686629;82;21075;-40
2021/05/16 03:00:47;;;;;;;13.63;12.33;;;;;;;12.42;66.89;99023.89;1705801;82;21827;-40
2021/05/16 03:03:14;;;;;;;14.03;12.53;;;;;;;12.48;66.66;99018.30;1716069;82;21067;-40
2021/05/16 03:05:41;;;;;;;16.00;13.48;;;;;;;12.56;66.65;99011.73;1704741;82;20991;-40
2021/05/16 03:08:08;;;;;;;15.55;13.90;;;;;;;12.61;67.06;99007.29;1706621;82;21138;-40
2021/05/16 03:10:37;;;;;;;15.15;13.55;;;;;;;12.69;67.68;99014.89;1712745;82;20979;-40
2021/05/16 03:13:04;;;;;;;14.15;12.65;;;;;;;12.77;67.76;99018.44;1713122;82;21066;-40
2021/05/16 03:15:32;;;;;;;16.02;13.78;;;;;;;12.81;68.45;99021.95;1685425;83;21055;-40
2021/05/16 03:18:00;;;;;;;13.38;11.97;;;;;;;12.80;68.77;99023.88;1703753;82;21054;-40
2021/05/16 03:20:26;;;;;;;13.43;12.03;;;;;;;12.86;68.97;99016.14;1678650;84;21623;-40
2021/05/16 03:22:54;;;;;;;12.73;11.43;;;;;;;12.99;68.64;99022.80;1674659;84;21391;-40
2021/05/16 03:25:22;;;;;;;14.03;12.60;;;;;;;13.09;68.39;99017.97;1667111;84;21152;-41
2021/05/16 03:27:49;;;;;;;14.58;13.08;;;;;;;13.15;68.96;99019.19;1666113;86;20987;-41
2021/05/16 03:30:17;;;;;;;16.02;14.43;;;;;;;13.17;69.23;99025.02;1666259;84;21040;-41
2021/05/16 03:32:43;;;;;;;16.62;14.93;;;;;;;13.25;69.17;99026.61;1666198;84;21074;-41
2021/05/16 03:35:11;;;;;;;16.57;14.83;;;;;;;13.25;69.43;99033.42;1666510;84;21641;-41
2021/05/16 03:37:38;;;;;;;16.42;14.38;;;;;;;13.30;69.81;99035.77;1666274;86;21129;-41
2021/05/16 03:40:07;;;;;;;17.35;14.87;;;;;;;13.40;69.97;99042.41;1678421;84;21027;-41
2021/05/16 03:42:34;;;;;;;17.37;14.95;;;;;;;13.47;69.84;99037.73;1690766;84;21654;-41
2021/05/16 03:45:01;;;;;;;19.23;15.85;;;;;;;13.53;69.82;99042.81;1666013;86;21103;-41
2021/05/16 03:47:27;;;;;;;17.45;15.65;;;;;;;13.57;69.87;99042.23;1666133;86;21098;-41
2021/05/16 03:49:57;;;;;;;17.02;13.98;;;;;;;13.63;70.17;99046.13;1666034;86;21093;-41
2021/05/16 03:52:23;;;;;;;16.90;13.32;;;;;;;13.72;70.06;99051.40;1666341;86;21103;-41
2021/05/16 03:54:50;;;;;;;18.15;13.83;;;;;;;13.77;70.01;99046.94;1680111;84;21087;-41
2021/05/16 03:57:17;;;;;;;16.15;14.15;;;;;;;13.81;70.07;99053.73;1667200;84;21043;-41
2021/05/16 03:59:44;;;;;;;16.27;14.58;;;;;;;13.83;70.23;99055.50;1694308;84;21055;-41
2021/05/16 04:02:11;;;;;;;15.88;14.03;;;;;;;13.81;70.53;99049.65;1689980;84;21484;-41
2021/05/16 04:04:38;;;;;;;15.40;13.08;;;;;;;13.82;70.78;99049.85;1666002;86;21633;-41
2021/05/16 04:07:04;;;;;;;14.28;12.50;;;;;;;13.89;70.78;99049.88;1666008;86;21617;-41
2021/05/16 04:09:33;;;;;;;16.50;13.05;;;;;;;14.02;70.65;99053.77;1661467;84;21099;-41
2021/05/16 04:11:59;;;;;;;14.63;12.78;;;;;;;14.13;70.43;99051.82;1673097;85;21100;-41
2021/05/16 04:14:28;;;;;;;14.68;13.13;;;;;;;14.25;70.22;99054.13;1659477;85;21097;-41
2021/05/16 04:16:57;;;;;;;16.03;13.97;;;;;;;14.47;69.66;99049.47;1662500;83;21168;-41
2021/05/16 04:19:24;;;;;;;16.95;14.23;;;;;;;14.47;69.66;99049.47;1728306;82;21091;-41
2021/05/16 04:21:50;;;;;;;15.63;12.35;;;;;;;14.51;69.53;99049.46;1717602;82;21040;-41
2021/05/16 04:24:17;;;;;;;13.40;12.00;;;;;;;14.60;69.42;99052.55;1705362;82;21044;-41
2021/05/16 04:26:44;;;;;;;13.25;11.85;;;;;;;14.72;69.20;99055.63;1713704;82;21922;-41
2021/05/16 04:29:11;;;;;;;15.18;12.93;;;;;;;14.85;69.01;99049.76;1704619;82;20977;-41
2021/05/16 04:31:38;;;;;;;14.33;12.70;;;;;;;14.93;68.75;99052.06;1705711;82;20980;-41
2021/05/16 04:34:05;;;;;;;17.10;13.25;;;;;;;15.02;68.37;99051.05;1700407;82;21075;-41
2021/05/16 04:36:32;;;;;;;17.42;14.20;;;;;;;15.12;68.00;99047.50;1713602;82;21087;-41
2021/05/16 04:38:58;;;;;;;16.20;13.70;;;;;;;15.19;67.89;99050.21;1705058;82;21070;-41
2021/05/16 04:41:25;;;;;;;13.28;11.97;;;;;;;15.27;67.88;99046.06;1705595;82;21665;-41
2021/05/16 04:43:52;;;;;;;14.20;12.78;;;;;;;15.36;67.84;99036.84;1704789;84;21549;-41
2021/05/16 04:46:18;;;;;;;15.18;13.58;;;;;;;15.49;67.70;99040.08;1704873;84;21060;-41
2021/05/16 04:48:46;;;;;;;15.15;13.55;;;;;;;15.65;67.67;99039.62;1705084;82;21056;-41
2021/05/16 04:51:13;;;;;;;16.50;14.80;;;;;;;15.78;67.49;99035.23;1705118;82;21089;-41
2021/05/16 04:53:39;;;;;;;16.77;14.63;;;;;;;15.87;67.45;99034.80;1711828;82;21004;-41
2021/05/16 04:56:06;;;;;;;16.85;15.15;;;;;;;15.96;67.66;99033.16;1705135;82;21068;-41
2021/05/16 04:58:32;;;;;;;16.75;14.58;;;;;;;16.05;67.72;99029.36;1705622;82;21104;-41
2021/05/16 05:01:00;;;;;;;16.07;13.62;;;;;;;16.15;67.72;99029.09;1709419;82;21039;-41
2021/05/16 05:03:27;;;;;;;15.80;14.20;;;;;;;16.28;67.64;99029.34;1705827;82;21111;-41
2021/05/16 05:05:54;;;;;;;16.35;14.68;;;;;;;16.41;67.18;99025.69;1693396;82;20988;-41
2021/05/16 05:08:23;;;;;;;15.80;14.05;;;;;;;16.57;66.87;99024.36;1708717;82;20956;-41
2021/05/16 05:10:52;;;;;;;17.30;15.08;;;;;;;16.70;66.76;99017.98;1733154;82;21079;-41
2021/05/16 05:13:20;;;;;;;16.80;14.95;;;;;;;16.79;66.70;99019.66;1720989;82;21059;-41
2021/05/16 05:15:47;;;;;;;17.42;13.48;;;;;;;16.89;66.14;99016.62;1722778;82;21129;-41
2021/05/16 05:18:18;;;;;;;15.38;13.88;;;;;;;16.99;65.96;99017.67;1727017;82;20987;-41
2021/05/16 05:20:47;;;;;;;15.15;13.22;;;;;;;17.11;65.27;99017.11;1720621;82;21000;-41
2021/05/16 05:23:13;;;;;;;15.53;12.68;;;;;;;17.23;64.37;99019.31;1719015;82;21059;-41
2021/05/16 05:25:40;;;;;;;15.10;13.35;;;;;;;17.33;63.46;99014.28;1719659;82;21636;-41
2021/05/16 05:28:07;;;;;;;14.68;13.13;;;;;;;17.46;63.48;99018.00;1738536;82;21702;-41
2021/05/16 05:30:34;;;;;;;14.23;12.82;;;;;;;17.58;62.47;99002.94;1737083;82;21031;-41
2021/05/16 05:33:00;;;;;;;15.32;13.40;;;;;;;17.66;62.51;99001.09;1719805;82;21099;-41
2021/05/16 05:35:27;;;;;;;15.75;14.10;;;;;;;17.77;62.37;99000.91;1722072;82;21019;-41
2021/05/16 05:37:54;;;;;;;17.37;14.25;;;;;;;17.84;61.70;98994.55;1722009;82;21010;-41
2021/05/16 05:40:20;;;;;;;16.20;13.88;;;;;;;17.92;61.23;99002.83;1719051;82;21076;-41
2021/05/16 05:42:47;;;;;;;15.13;13.58;;;;;;;18.00;60.94;99003.68;1720317;81;21003;-41
2021/05/16 05:45:14;;;;;;;15.48;13.88;;;;;;;18.06;60.61;98997.09;1723287;82;20964;-41
2021/05/16 05:47:41;;;;;;;16.10;14.45;;;;;;;18.13;60.34;98996.98;1725267;82;20979;-41
2021/05/16 05:50:10;;;;;;;16.32;14.20;;;;;;;18.18;59.86;99001.40;1726136;82;21066;-41
2021/05/16 05:52:38;;;;;;;16.60;13.32;;;;;;;18.27;59.80;99013.80;1728837;82;21129;-41
2021/05/16 05:55:07;;;;;;;14.23;12.73;;;;;;;18.33;59.62;99011.53;1724959;82;21043;-41
2021/05/16 05:57:34;;;;;;;15.93;14.10;;;;;;;18.40;59.58;99014.72;1718464;83;21063;-41
2021/05/16 06:00:00;;;;;;;14.85;13.15;;;;;;;18.47;59.45;99019.50;1733818;82;20987;-41
2021/05/16 06:02:27;;;;;;;14.78;13.28;;;;;;;18.54;59.23;99014.52;1728906;82;21050;-41
2021/05/16 06:04:59;;;;;;;16.10;14.28;;;;;;;18.61;59.28;99011.03;1730512;82;21075;-41
2021/05/16 06:07:27;;;;;;;14.55;13.05;;;;;;;18.69;59.27;99011.66;1718584;82;21067;-41
2021/05/16 06:09:56;;;;;;;16.40;13.78;;;;;;;18.79;59.21;99020.28;1730433;81;21063;-41
2021/05/16 06:12:25;;;;;;;14.07;11.93;;;;;;;18.93;58.97;99017.25;1701745;83;20951;-41
2021/05/16 06:14:53;;;;;;;13.38;11.97;;;;;;;18.98;58.61;99022.84;1721027;80;21022;-41
2021/05/16 06:17:20;;;;;;;16.20;14.45;;;;;;;19.08;58.59;99028.13;1724916;82;21087;-42
2021/05/16 06:19:50;;;;;;;15.23;13.62;;;;;;;19.17;58.00;99028.17;1732601;82;21071;-42
2021/05/16 06:24:06;;;;;;;13.28;11.85;;;;;;;19.31;57.79;99025.11;1784679;79;22733;-41
2021/05/16 06:26:40;;;;;;;11.22;10.03;;;;;;;19.29;57.00;99020.03;1769894;80;21647;-41
2021/05/16 06:29:12;;;;;;;12.15;10.82;;;;;;;19.43;55.91;99019.72;1766864;80;21047;-41
2021/05/16 06:31:42;;;;;;;11.85;10.63;;;;;;;19.53;55.77;99017.36;1750444;80;21093;-41
2021/05/16 06:34:09;;;;;;;9.98;8.88;;;;;;;19.62;55.78;99015.98;1766502;80;20923;-41
2021/05/16 06:36:37;;;;;;;7.80;7.00;;;;;;;19.73;55.34;99015.14;1769743;80;20923;-41
2021/05/16 06:39:10;;;;;;;9.10;7.65;;;;;;;19.84;55.04;99018.42;1766283;80;20936;-41
2021/05/16 06:41:37;;;;;;;8.58;7.55;;;;;;;19.98;53.77;99011.20;1759860;80;21071;-41
2021/05/16 06:44:04;;;;;;;9.33;7.92;;;;;;;20.11;53.52;99012.64;1775752;80;21664;-41
2021/05/16 06:46:30;;;;;;;9.90;7.72;;;;;;;20.23;53.79;99011.35;1773880;80;21577;-41
2021/05/16 06:48:58;;;;;;;8.00;5.87;;;;;;;20.33;53.29;99011.68;1759413;80;21132;-41
2021/05/16 06:51:25;;;;;;;6.25;5.65;;;;;;;20.43;52.12;99005.72;1784313;79;21019;-41
2021/05/16 06:53:52;;;;;;;6.00;4.80;;;;;;;20.49;51.57;99007.34;1760073;80;21091;-41
2021/05/16 06:56:18;;;;;;;4.20;3.80;;;;;;;20.54;51.47;99010.35;1766633;80;21071;-41
2021/05/16 06:58:46;;;;;;;6.47;4.20;;;;;;;20.61;50.45;99008.02;1765212;80;20939;-41
2021/05/16 07:01:13;;;;;;;4.30;3.87;;;;;;;20.68;49.21;99007.80;1760860;80;21642;-41
2021/05/16 07:03:41;;;;;;;4.70;3.90;;;;;;;20.73;48.85;99012.78;1778424;80;20962;-41
2021/05/16 07:06:08;;;;;;;5.12;4.00;;;;;;;20.78;49.30;99010.27;1722315;83;21806;-41
2021/05/16 07:08:36;;;;;;;5.12;3.55;;;;;;;20.92;49.72;99016.58;1727476;82;21565;-41
2021/05/16 07:11:03;;;;;;;4.78;3.40;;;;;;;21.03;49.30;99011.55;1735435;82;21027;-41
2021/05/16 07:13:34;;;;;;;4.65;3.22;;;;;;;21.17;48.54;99009.78;1712363;82;20991;-41
2021/05/16 07:16:04;;;;;;;4.42;3.15;;;;;;;21.27;47.72;99015.58;1732205;82;20978;-41
2021/05/16 07:18:30;;;;;;;4.17;3.25;;;;;;;21.38;47.90;99007.00;1722055;82;21172;-41
2021/05/16 07:20:57;;;;;;;4.75;3.08;;;;;;;21.49;47.60;99010.20;1702493;84;20973;-41
2021/05/16 07:23:25;;;;;;;3.87;3.30;;;;;;;21.59;46.81;99017.37;1698614;84;21046;-41
2021/05/16 07:25:52;;;;;;;4.78;2.98;;;;;;;21.71;46.55;99022.71;1693438;84;21011;-41
2021/05/16 07:28:18;;;;;;;4.25;3.33;;;;;;;21.79;46.63;99028.94;1685630;85;21080;-42
2021/05/16 07:30:45;;;;;;;3.95;3.55;;;;;;;21.85;46.16;99020.88;1730557;82;21220;-41
2021/05/16 07:33:12;;;;;;;4.08;3.65;;;;;;;21.91;46.74;99029.55;1729453;82;20976;-41
2021/05/16 07:35:38;;;;;;;3.83;3.42;;;;;;;21.98;47.00;99022.43;1729557;82;21027;-41
2021/05/16 07:38:05;;;;;;;5.42;3.30;;;;;;;22.05;46.62;99029.11;1724167;82;21763;-41
2021/05/16 07:40:31;;;;;;;4.15;3.22;;;;;;;22.08;46.03;99028.21;1719989;82;21641;-41
2021/05/16 07:42:59;;;;;;;5.42;3.47;;;;;;;22.12;46.41;99030.88;1722314;82;21824;-42
2021/05/16 07:45:26;;;;;;;3.67;3.37;;;;;;;22.25;46.37;99032.22;1723107;82;20983;-41
2021/05/16 07:47:53;;;;;;;3.72;3.02;;;;;;;22.41;46.45;99022.40;1719603;82;20964;-41
2021/05/16 07:50:19;;;;;;;3.58;3.27;;;;;;;22.52;44.83;99020.80;1720573;82;21010;-41
2021/05/16 07:52:46;;;;;;;5.25;3.15;;;;;;;22.60;44.39;99011.66;1728783;82;21011;-41
2021/05/16 07:55:15;;;;;;;3.37;3.08;;;;;;;22.69;43.85;99011.72;1720140;82;21098;-41
2021/05/16 07:57:42;;;;;;;3.00;2.70;;;;;;;22.73;43.87;99004.10;1728547;82;21249;-42
2021/05/16 08:00:12;;;;;;;3.27;2.60;;;;;;;22.78;44.01;98995.23;1724549;82;21885;-41
2021/05/16 08:02:44;;;;;;;3.00;2.60;;;;;;;22.88;44.12;98989.93;1725590;82;21088;-41
2021/05/16 08:05:13;;;;;;;2.72;2.50;;;;;;;23.02;42.40;98991.39;1718126;82;21085;-41
2021/05/16 08:07:41;;;;;;;5.20;2.95;;;;;;;23.11;42.92;98992.81;1723140;82;21038;-41
2021/05/16 08:10:09;;;;;;;3.17;2.52;;;;;;;23.25;42.27;98988.73;1716113;82;21595;-41
2021/05/16 08:12:37;;;;;;;4.17;2.25;;;;;;;23.36;41.57;98994.63;1729197;82;20988;-41
2021/05/16 08:15:06;;;;;;;2.50;2.30;;;;;;;23.45;40.87;98994.70;1729173;82;20981;-42
2021/05/16 08:17:33;;;;;;;4.85;2.30;;;;;;;23.44;39.85;98997.27;1719998;82;21060;-41
2021/05/16 08:20:05;;;;;;;2.50;2.30;;;;;;;23.36;40.95;98996.02;1724683;82;20999;-41
2021/05/16 08:22:32;;;;;;;2.62;2.35;;;;;;;23.44;41.03;98993.13;1681328;84;20980;-42
2021/05/16 08:24:59;;;;;;;3.20;2.30;;;;;;;23.60;41.76;98990.76;1728462;82;21083;-42
2021/05/16 08:27:25;;;;;;;2.62;2.27;;;;;;;23.80;41.48;98987.75;1720859;82;21063;-42
2021/05/16 08:29:54;;;;;;;3.42;2.30;;;;;;;24.02;41.03;98991.01;1705310;82;20992;-42
2021/05/16 08:32:21;;;;;;;2.72;2.35;;;;;;;24.19;40.52;98993.08;1730921;82;21558;-41
2021/05/16 08:34:48;;;;;;;2.50;2.22;;;;;;;24.31;40.50;98984.45;1720549;82;21657;-42
2021/05/16 08:37:14;;;;;;;2.50;2.30;;;;;;;24.44;40.67;98994.80;1728939;82;22033;-42
2021/05/16 08:39:42;;;;;;;3.27;2.20;;;;;;;24.61;39.40;98998.77;1729202;82;21004;-41
2021/05/16 08:42:09;;;;;;;2.92;2.33;;;;;;;24.72;39.38;98996.16;1726981;82;21071;-42
2021/05/16 08:44:37;;;;;;;2.40;2.17;;;;;;;24.81;39.93;98991.98;1731805;82;21917;-42
2021/05/16 08:47:06;;;;;;;5.42;2.40;;;;;;;24.99;39.04;98987.80;1730175;82;21080;-41
2021/05/16 08:49:33;;;;;;;5.22;2.35;;;;;;;25.13;38.12;98987.77;1724601;82;26968;-41
2021/05/16 08:52:00;;;;;;;3.02;2.27;;;;;;;25.18;37.51;98983.75;1728300;82;21043;-41
2021/05/16 08:54:27;;;;;;;3.98;2.10;;;;;;;25.16;38.22;98982.08;1730558;82;21635;-41
2021/05/16 08:56:55;;;;;;;2.95;2.20;;;;;;;25.16;38.00;98979.30;1728443;82;21081;-41
2021/05/16 08:59:25;;;;;;;3.02;2.17;;;;;;;25.15;38.92;98969.44;1726861;83;21640;-41
2021/05/16 09:01:58;;;;;;;2.45;2.25;;;;;;;25.16;38.29;98972.36;1729646;82;20984;-43
2021/05/16 09:04:35;;;;;;;4.03;2.25;;;;;;;25.20;38.27;98968.80;1731795;82;21012;-42
2021/05/16 09:07:04;;;;;;;1.82;1.65;;;;;;;25.23;38.90;98964.31;1727285;82;20963;-42
2021/05/16 09:09:36;;;;;;;2.98;1.90;;;;;;;25.27;37.59;98961.52;1731259;82;21003;-41
2021/05/16 09:12:08;;;;;;;1.92;1.60;;;;;;;25.33;37.57;98965.81;1725630;82;20968;-42
2021/05/16 09:14:57;;;;;;;2.08;1.57;;;;;;;25.38;37.48;98957.63;1729876;82;21534;-42
2021/05/16 09:17:35;;;;;;;4.87;1.87;;;;;;;25.48;37.27;98959.13;1731634;82;20992;-42
2021/05/16 09:20:07;;;;;;;1.62;1.42;;;;;;;25.65;37.29;98962.31;1729034;82;21649;-42
2021/05/16 09:22:43;;;;;;;2.35;1.72;;;;;;;25.76;36.51;98957.61;1721234;82;21721;-42
2021/05/16 09:25:31;;;;;;;2.37;1.50;;;;;;;25.77;36.72;98956.37;1752327;81;20979;-42
2021/05/16 09:28:15;;;;;;;2.83;1.60;;;;;;;25.68;36.33;98953.66;1753045;81;20955;-42
2021/05/16 09:30:42;;;;;;;1.95;1.67;;;;;;;25.53;36.84;98946.61;1755675;81;20979;-41
2021/05/16 09:33:13;;;;;;;1.80;1.37;;;;;;;25.52;36.33;98954.16;1755906;81;21057;-41
2021/05/16 09:35:44;;;;;;;2.08;1.52;;;;;;;25.63;35.95;98947.36;1754297;81;21069;-42
2021/05/16 09:38:16;;;;;;;1.87;1.60;;;;;;;25.71;36.17;98949.92;1742680;81;21027;-41
2021/05/16 09:40:53;;;;;;;1.60;1.50;;;;;;;25.79;36.25;98943.56;1750624;81;20987;-41
2021/05/16 09:43:31;;;;;;;2.62;1.60;;;;;;;25.90;36.33;98941.66;1692262;84;21079;-42
2021/05/16 09:46:08;;;;;;;3.25;1.60;;;;;;;25.92;36.44;98946.87;1683977;84;21023;-42
2021/05/16 09:48:41;;;;;;;3.20;1.50;;;;;;;26.01;36.37;98948.04;1683227;84;21034;-42
2021/05/16 09:51:15;;;;;;;2.37;1.30;;;;;;;26.11;36.73;98947.50;1691412;83;21557;-42
2021/05/16 09:53:55;;;;;;;1.70;1.20;;;;;;;26.19;36.57;98944.50;1687294;84;21122;-42
2021/05/16 09:56:34;;;;;;;1.40;1.15;;;;;;;26.19;35.47;98952.09;1691060;84;21031;-42
2021/05/16 09:59:09;;;;;;;3.95;1.50;;;;;;;26.06;36.03;98952.94;1687501;84;21132;-42
2021/05/16 10:01:37;;;;;;;1.27;1.17;;;;;;;25.93;35.78;98949.03;1688907;84;21777;-42
2021/05/16 10:04:05;;;;;;;1.42;1.25;;;;;;;25.81;35.56;98941.69;1689299;84;21070;-42
2021/05/16 10:06:33;;;;;;;1.52;1.20;;;;;;;25.76;35.99;98938.94;1689691;84;21005;-41
2021/05/16 10:09:01;;;;;;;2.17;1.03;;;;;;;25.80;36.13;98931.84;1696015;84;20985;-42
2021/05/16 10:11:30;;;;;;;1.47;1.10;;;;;;;25.99;35.95;98927.70;1696852;84;20999;-42
2021/05/16 10:14:10;;;;;;;2.33;0.93;;;;;;;26.22;34.68;98930.32;1671906;84;21721;-42
2021/05/16 10:16:47;;;;;;;1.10;1.00;;;;;;;26.39;34.71;98921.66;1686307;84;21103;-42
2021/05/16 10:19:23;;;;;;;1.70;1.20;;;;;;;26.64;35.34;98913.39;1689951;84;21604;-42
2021/05/16 10:22:11;;;;;;;1.50;1.35;;;;;;;26.84;34.26;98909.32;1677366;84;21023;-42
2021/05/16 10:24:47;;;;;;;1.75;1.37;;;;;;;26.93;32.95;98910.64;1679252;84;21108;-42
2021/05/16 10:27:24;;;;;;;1.82;1.30;;;;;;;26.94;33.40;98903.06;1648941;87;21158;-42
2021/05/16 10:29:59;;;;;;;1.70;1.02;;;;;;;27.12;33.92;98903.61;1642169;87;21028;-42
2021/05/16 10:32:34;;;;;;;1.80;1.10;;;;;;;27.23;33.30;98902.39;1657991;86;21047;-42
2021/05/16 10:35:10;;;;;;;1.52;1.00;;;;;;;27.29;33.34;98898.92;1732624;82;21565;-42
2021/05/16 10:37:57;;;;;;;1.25;1.15;;;;;;;27.40;32.35;98899.83;1704710;83;20968;-42
2021/05/16 10:40:27;;;;;;;1.40;0.85;;;;;;;27.59;32.33;98901.80;1714405;82;21697;-42
2021/05/16 10:43:00;;;;;;;1.47;0.93;;;;;;;27.74;32.45;98899.69;1725507;82;21130;-42
2021/05/16 10:45:35;;;;;;;0.80;0.72;;;;;;;27.80;32.13;98899.14;1704751;84;20967;-42
2021/05/16 10:48:20;;;;;;;0.70;0.60;;;;;;;27.81;31.47;98892.95;1704649;84;21142;-42
2021/05/16 10:51:00;;;;;;;1.82;0.57;;;;;;;27.77;30.39;98885.42;1718948;82;20920;-42
2021/05/16 10:53:36;;;;;;;1.22;1.05;;;;;;;27.59;31.12;98882.30;1733713;82;21056;-42
2021/05/16 10:56:20;;;;;;;2.85;1.50;;;;;;;27.67;32.27;98884.80;1730392;82;21023;-42
2021/05/16 10:58:49;;;;;;;2.08;1.07;;;;;;;27.87;32.52;98878.47;1717842;82;21589;-42
2021/05/16 11:01:19;;;;;;;;;;;;;;;28.07;32.16;98876.43;1724737;82;21590;-42
2021/05/16 11:03:56;;;;;;;1.45;0.93;;;;;;;28.27;31.10;98873.50;1695393;83;20223;-42
2021/05/16 11:06:42;;;;;;;1.10;0.78;;;;;;;28.30;31.87;98869.72;1682393;85;21128;-42
2021/05/16 11:09:13;;;;;;;2.25;0.70;;;;;;;28.20;31.63;98865.55;1681933;84;21070;-42
2021/05/16 11:11:51;;;;;;;2.58;0.82;;;;;;;28.02;30.96;98862.43;1718909;82;21635;-42
2021/05/16 11:14:27;;;;;;;1.52;0.75;;;;;;;27.89;31.54;98862.78;1733951;82;21028;-42
2021/05/16 11:17:01;;;;;;;2.37;1.05;;;;;;;27.78;31.17;98860.50;1733498;82;21668;-42
2021/05/16 11:19:31;;;;;;;1.75;0.85;;;;;;;27.62;31.21;98861.82;1733370;82;22333;-42
2021/05/16 11:22:00;;;;;;;1.82;1.02;;;;;;;27.49;31.49;98859.39;1729954;82;21608;-42
2021/05/16 11:24:38;;;;;;;1.55;0.90;;;;;;;27.31;32.36;98846.30;1716170;81;21628;-42
2021/05/16 11:27:19;;;;;;;2.45;1.40;;;;;;;27.10;31.84;98844.13;1755336;81;20948;-42
2021/05/16 11:29:52;;;;;;;2.75;1.40;;;;;;;26.90;32.15;98842.69;1755707;81;21079;-42
2021/05/16 11:32:27;;;;;;;1.22;0.80;;;;;;;26.74;32.37;98835.58;1726980;81;21063;-42
2021/05/16 11:35:08;;;;;;;2.25;0.80;;;;;;;26.85;32.38;98828.04;1754648;81;21014;-42